sensor_id;sensor_type;location;lat;lon;timestamp;P1;durP1;ratioP1;P2;durP2;ratioP2
73733;SDS011;62039;50.000;9.064;2023-02-26T00:01:19;3.93;;;2.03;;
73733;SDS011;62039;50.000;9.064;2023-02-26T00:03:47;2.10;;;1.80;;
73733;SDS011;62039;50.000;9.064;2023-02-26T00:06:14;3.07;;;2.03;;
73733;SDS011;62039;50.000;9.064;2023-02-26T00:08:42;2.37;;;1.70;;
73733;SDS011;62039;50.000;9.064;2023-02-26T00:11:09;2.03;;;1.50;;
73733;SDS011;62039;50.000;9.064;2023-02-26T00:13:37;2.20;;;1.90;;
73733;SDS011;62039;50.000;9.064;2023-02-26T00:16:09;1.77;;;1.67;;
73733;SDS011;62039;50.000;9.064;2023-02-26T00:18:40;3.77;;;1.73;;
73733;SDS011;62039;50.000;9.064;2023-02-26T00:21:07;3.77;;;1.90;;
73733;SDS011;62039;50.000;9.064;2023-02-26T00:23:43;2.10;;;1.90;;
73733;SDS011;62039;50.000;9.064;2023-02-26T00:26:09;1.63;;;1.40;;
73733;SDS011;62039;50.000;9.064;2023-02-26T00:28:36;2.73;;;1.77;;
73733;SDS011;62039;50.000;9.064;2023-02-26T00:31:03;2.50;;;1.90;;
73733;SDS011;62039;50.000;9.064;2023-02-26T00:33:31;4.13;;;1.93;;
73733;SDS011;62039;50.000;9.064;2023-02-26T00:35:59;2.00;;;1.77;;
73733;SDS011;62039;50.000;9.064;2023-02-26T00:38:34;2.80;;;2.03;;
73733;SDS011;62039;50.000;9.064;2023-02-26T00:41:04;2.77;;;1.90;;
73733;SDS011;62039;50.000;9.064;2023-02-26T00:43:31;3.47;;;2.00;;
73733;SDS011;62039;50.000;9.064;2023-02-26T00:46:00;2.63;;;1.70;;
73733;SDS011;62039;50.000;9.064;2023-02-26T00:48:37;3.23;;;1.60;;
73733;SDS011;62039;50.000;9.064;2023-02-26T00:51:12;2.20;;;1.67;;
73733;SDS011;62039;50.000;9.064;2023-02-26T00:53:46;3.10;;;1.80;;
73733;SDS011;62039;50.000;9.064;2023-02-26T00:56:18;2.60;;;1.70;;
73733;SDS011;62039;50.000;9.064;2023-02-26T00:58:45;3.60;;;1.60;;
73733;SDS011;62039;50.000;9.064;2023-02-26T01:01:11;2.17;;;1.37;;
73733;SDS011;62039;50.000;9.064;2023-02-26T01:03:38;2.90;;;1.50;;
73733;SDS011;62039;50.000;9.064;2023-02-26T01:06:08;2.53;;;1.40;;
73733;SDS011;62039;50.000;9.064;2023-02-26T01:08:37;2.40;;;1.50;;
73733;SDS011;62039;50.000;9.064;2023-02-26T01:11:09;2.40;;;1.70;;
73733;SDS011;62039;50.000;9.064;2023-02-26T01:13:37;1.50;;;1.40;;
73733;SDS011;62039;50.000;9.064;2023-02-26T01:16:06;3.70;;;1.40;;
73733;SDS011;62039;50.000;9.064;2023-02-26T01:18:37;2.47;;;1.53;;
73733;SDS011;62039;50.000;9.064;2023-02-26T01:21:08;2.10;;;1.50;;
73733;SDS011;62039;50.000;9.064;2023-02-26T01:23:39;2.43;;;1.40;;
73733;SDS011;62039;50.000;9.064;2023-02-26T01:26:09;2.57;;;1.87;;
73733;SDS011;62039;50.000;9.064;2023-02-26T01:28:41;2.90;;;1.60;;
73733;SDS011;62039;50.000;9.064;2023-02-26T01:31:10;3.23;;;1.83;;
73733;SDS011;62039;50.000;9.064;2023-02-26T01:33:45;2.37;;;1.67;;
73733;SDS011;62039;50.000;9.064;2023-02-26T01:36:16;2.00;;;1.60;;
73733;SDS011;62039;50.000;9.064;2023-02-26T01:38:48;2.37;;;1.70;;
73733;SDS011;62039;50.000;9.064;2023-02-26T01:41:23;2.20;;;1.87;;
73733;SDS011;62039;50.000;9.064;2023-02-26T01:44:07;2.57;;;1.70;;
73733;SDS011;62039;50.000;9.064;2023-02-26T01:46:43;3.00;;;1.93;;
73733;SDS011;62039;50.000;9.064;2023-02-26T01:49:17;1.73;;;1.63;;
73733;SDS011;62039;50.000;9.064;2023-02-26T01:51:47;2.57;;;1.90;;
73733;SDS011;62039;50.000;9.064;2023-02-26T01:54:16;3.40;;;1.80;;
73733;SDS011;62039;50.000;9.064;2023-02-26T01:56:47;2.33;;;2.00;;
73733;SDS011;62039;50.000;9.064;2023-02-26T01:59:17;2.13;;;1.77;;
73733;SDS011;62039;50.000;9.064;2023-02-26T02:01:44;2.00;;;1.77;;
73733;SDS011;62039;50.000;9.064;2023-02-26T02:04:12;3.57;;;2.20;;
73733;SDS011;62039;50.000;9.064;2023-02-26T02:06:41;3.17;;;2.00;;
73733;SDS011;62039;50.000;9.064;2023-02-26T02:09:08;3.23;;;2.00;;
73733;SDS011;62039;50.000;9.064;2023-02-26T02:11:36;3.53;;;2.10;;
73733;SDS011;62039;50.000;9.064;2023-02-26T02:14:14;3.20;;;2.23;;
73733;SDS011;62039;50.000;9.064;2023-02-26T02:16:51;2.90;;;1.80;;
73733;SDS011;62039;50.000;9.064;2023-02-26T02:19:32;2.63;;;2.30;;
73733;SDS011;62039;50.000;9.064;2023-02-26T02:22:34;2.03;;;1.80;;
73733;SDS011;62039;50.000;9.064;2023-02-26T02:25:16;3.23;;;2.07;;
73733;SDS011;62039;50.000;9.064;2023-02-26T02:28:02;2.57;;;2.20;;
73733;SDS011;62039;50.000;9.064;2023-02-26T02:30:38;3.83;;;2.10;;
73733;SDS011;62039;50.000;9.064;2023-02-26T02:33:19;2.30;;;1.90;;
73733;SDS011;62039;50.000;9.064;2023-02-26T02:35:50;3.23;;;2.20;;
73733;SDS011;62039;50.000;9.064;2023-02-26T02:38:22;2.80;;;2.07;;
73733;SDS011;62039;50.000;9.064;2023-02-26T02:40:54;2.33;;;2.13;;
73733;SDS011;62039;50.000;9.064;2023-02-26T02:43:26;2.90;;;1.93;;
73733;SDS011;62039;50.000;9.064;2023-02-26T02:45:58;2.83;;;2.17;;
73733;SDS011;62039;50.000;9.064;2023-02-26T02:48:30;2.93;;;2.00;;
73733;SDS011;62039;50.000;9.064;2023-02-26T02:50:59;2.63;;;1.93;;
73733;SDS011;62039;50.000;9.064;2023-02-26T02:53:29;2.60;;;2.20;;
73733;SDS011;62039;50.000;9.064;2023-02-26T02:56:01;3.13;;;2.00;;
73733;SDS011;62039;50.000;9.064;2023-02-26T02:58:33;4.27;;;2.33;;
73733;SDS011;62039;50.000;9.064;2023-02-26T03:01:06;3.17;;;2.13;;
73733;SDS011;62039;50.000;9.064;2023-02-26T03:03:38;2.20;;;2.00;;
73733;SDS011;62039;50.000;9.064;2023-02-26T03:06:10;3.17;;;1.77;;
73733;SDS011;62039;50.000;9.064;2023-02-26T03:08:39;3.10;;;2.10;;
73733;SDS011;62039;50.000;9.064;2023-02-26T03:11:06;2.83;;;2.17;;
73733;SDS011;62039;50.000;9.064;2023-02-26T03:13:33;5.47;;;2.30;;
73733;SDS011;62039;50.000;9.064;2023-02-26T03:16:05;3.23;;;2.37;;
73733;SDS011;62039;50.000;9.064;2023-02-26T03:18:47;4.03;;;2.30;;
73733;SDS011;62039;50.000;9.064;2023-02-26T03:21:20;3.10;;;2.17;;
73733;SDS011;62039;50.000;9.064;2023-02-26T03:23:53;3.50;;;2.37;;
73733;SDS011;62039;50.000;9.064;2023-02-26T03:26:26;3.40;;;2.70;;
73733;SDS011;62039;50.000;9.064;2023-02-26T03:28:58;2.70;;;2.27;;
73733;SDS011;62039;50.000;9.064;2023-02-26T03:31:32;3.30;;;2.30;;
73733;SDS011;62039;50.000;9.064;2023-02-26T03:34:04;4.90;;;2.20;;
73733;SDS011;62039;50.000;9.064;2023-02-26T03:36:35;4.23;;;2.53;;
73733;SDS011;62039;50.000;9.064;2023-02-26T03:39:04;3.73;;;2.77;;
73733;SDS011;62039;50.000;9.064;2023-02-26T03:41:37;4.10;;;2.57;;
73733;SDS011;62039;50.000;9.064;2023-02-26T03:44:08;3.90;;;2.17;;
73733;SDS011;62039;50.000;9.064;2023-02-26T03:46:45;3.47;;;2.03;;
73733;SDS011;62039;50.000;9.064;2023-02-26T03:49:16;2.87;;;2.00;;
73733;SDS011;62039;50.000;9.064;2023-02-26T03:51:47;2.40;;;1.90;;
73733;SDS011;62039;50.000;9.064;2023-02-26T03:54:15;2.57;;;1.90;;
73733;SDS011;62039;50.000;9.064;2023-02-26T03:56:46;2.53;;;2.00;;
73733;SDS011;62039;50.000;9.064;2023-02-26T03:59:14;3.33;;;1.90;;
73733;SDS011;62039;50.000;9.064;2023-02-26T04:01:42;2.97;;;2.20;;
73733;SDS011;62039;50.000;9.064;2023-02-26T04:04:15;4.53;;;2.30;;
73733;SDS011;62039;50.000;9.064;2023-02-26T04:06:45;3.33;;;2.07;;
73733;SDS011;62039;50.000;9.064;2023-02-26T04:09:13;3.43;;;2.30;;
73733;SDS011;62039;50.000;9.064;2023-02-26T04:11:41;2.70;;;2.00;;
73733;SDS011;62039;50.000;9.064;2023-02-26T04:14:08;3.00;;;2.20;;
73733;SDS011;62039;50.000;9.064;2023-02-26T04:16:35;3.80;;;2.20;;
73733;SDS011;62039;50.000;9.064;2023-02-26T04:19:03;2.40;;;2.10;;
73733;SDS011;62039;50.000;9.064;2023-02-26T04:21:30;2.27;;;2.07;;
73733;SDS011;62039;50.000;9.064;2023-02-26T04:23:56;2.90;;;2.07;;
73733;SDS011;62039;50.000;9.064;2023-02-26T04:26:23;3.40;;;2.30;;
73733;SDS011;62039;50.000;9.064;2023-02-26T04:28:50;5.07;;;2.13;;
73733;SDS011;62039;50.000;9.064;2023-02-26T04:31:16;5.90;;;3.07;;
73733;SDS011;62039;50.000;9.064;2023-02-26T04:33:43;2.97;;;2.23;;
73733;SDS011;62039;50.000;9.064;2023-02-26T04:36:11;3.43;;;2.30;;
73733;SDS011;62039;50.000;9.064;2023-02-26T04:38:38;3.90;;;2.00;;
73733;SDS011;62039;50.000;9.064;2023-02-26T04:41:04;2.73;;;1.90;;
73733;SDS011;62039;50.000;9.064;2023-02-26T04:43:31;2.50;;;1.70;;
73733;SDS011;62039;50.000;9.064;2023-02-26T04:45:58;3.10;;;1.97;;
73733;SDS011;62039;50.000;9.064;2023-02-26T04:48:25;3.70;;;2.37;;
73733;SDS011;62039;50.000;9.064;2023-02-26T04:50:51;2.70;;;1.93;;
73733;SDS011;62039;50.000;9.064;2023-02-26T04:53:19;2.80;;;1.87;;
73733;SDS011;62039;50.000;9.064;2023-02-26T04:55:46;3.23;;;2.20;;
73733;SDS011;62039;50.000;9.064;2023-02-26T04:58:17;3.07;;;1.80;;
73733;SDS011;62039;50.000;9.064;2023-02-26T05:00:46;3.47;;;2.00;;
73733;SDS011;62039;50.000;9.064;2023-02-26T05:03:13;3.83;;;2.03;;
73733;SDS011;62039;50.000;9.064;2023-02-26T05:05:40;3.37;;;1.87;;
73733;SDS011;62039;50.000;9.064;2023-02-26T05:08:07;3.17;;;2.10;;
73733;SDS011;62039;50.000;9.064;2023-02-26T05:10:35;3.13;;;1.80;;
73733;SDS011;62039;50.000;9.064;2023-02-26T05:13:02;2.90;;;2.03;;
73733;SDS011;62039;50.000;9.064;2023-02-26T05:15:28;5.30;;;2.37;;
73733;SDS011;62039;50.000;9.064;2023-02-26T05:17:55;10.33;;;6.37;;
73733;SDS011;62039;50.000;9.064;2023-02-26T05:20:21;5.17;;;3.73;;
73733;SDS011;62039;50.000;9.064;2023-02-26T05:22:48;4.80;;;2.63;;
73733;SDS011;62039;50.000;9.064;2023-02-26T05:25:16;4.00;;;2.70;;
73733;SDS011;62039;50.000;9.064;2023-02-26T05:27:44;4.43;;;2.50;;
73733;SDS011;62039;50.000;9.064;2023-02-26T05:30:12;5.57;;;3.53;;
73733;SDS011;62039;50.000;9.064;2023-02-26T05:32:40;3.10;;;2.00;;
73733;SDS011;62039;50.000;9.064;2023-02-26T05:35:07;2.70;;;1.90;;
73733;SDS011;62039;50.000;9.064;2023-02-26T05:37:33;1.97;;;1.73;;
73733;SDS011;62039;50.000;9.064;2023-02-26T05:40:00;2.40;;;1.80;;
73733;SDS011;62039;50.000;9.064;2023-02-26T05:42:26;3.07;;;1.90;;
73733;SDS011;62039;50.000;9.064;2023-02-26T05:44:54;3.17;;;2.20;;
73733;SDS011;62039;50.000;9.064;2023-02-26T05:47:21;6.80;;;2.93;;
73733;SDS011;62039;50.000;9.064;2023-02-26T05:49:47;3.40;;;2.27;;
73733;SDS011;62039;50.000;9.064;2023-02-26T05:52:14;4.50;;;2.53;;
73733;SDS011;62039;50.000;9.064;2023-02-26T05:54:40;2.30;;;2.10;;
73733;SDS011;62039;50.000;9.064;2023-02-26T05:57:07;2.57;;;2.10;;
73733;SDS011;62039;50.000;9.064;2023-02-26T05:59:33;2.37;;;2.03;;
73733;SDS011;62039;50.000;9.064;2023-02-26T06:02:01;3.33;;;2.30;;
73733;SDS011;62039;50.000;9.064;2023-02-26T06:04:28;3.03;;;2.30;;
73733;SDS011;62039;50.000;9.064;2023-02-26T06:06:55;4.23;;;2.50;;
73733;SDS011;62039;50.000;9.064;2023-02-26T06:09:21;2.43;;;2.00;;
73733;SDS011;62039;50.000;9.064;2023-02-26T06:11:48;2.83;;;1.63;;
73733;SDS011;62039;50.000;9.064;2023-02-26T06:14:14;2.70;;;1.80;;
73733;SDS011;62039;50.000;9.064;2023-02-26T06:16:41;4.13;;;1.90;;
73733;SDS011;62039;50.000;9.064;2023-02-26T06:19:09;2.47;;;1.87;;
73733;SDS011;62039;50.000;9.064;2023-02-26T06:21:35;2.67;;;1.80;;
73733;SDS011;62039;50.000;9.064;2023-02-26T06:24:02;2.93;;;2.00;;
73733;SDS011;62039;50.000;9.064;2023-02-26T06:26:29;2.97;;;1.50;;
73733;SDS011;62039;50.000;9.064;2023-02-26T06:28:55;2.67;;;1.60;;
73733;SDS011;62039;50.000;9.064;2023-02-26T06:31:22;3.93;;;1.63;;
73733;SDS011;62039;50.000;9.064;2023-02-26T06:33:49;3.67;;;1.70;;
73733;SDS011;62039;50.000;9.064;2023-02-26T06:36:17;4.33;;;2.17;;
73733;SDS011;62039;50.000;9.064;2023-02-26T06:38:43;4.50;;;2.97;;
73733;SDS011;62039;50.000;9.064;2023-02-26T06:41:10;3.67;;;2.40;;
73733;SDS011;62039;50.000;9.064;2023-02-26T06:43:37;3.97;;;2.37;;
73733;SDS011;62039;50.000;9.064;2023-02-26T06:46:03;4.83;;;2.87;;
73733;SDS011;62039;50.000;9.064;2023-02-26T06:48:30;2.87;;;2.30;;
73733;SDS011;62039;50.000;9.064;2023-02-26T06:50:56;3.97;;;2.83;;
73733;SDS011;62039;50.000;9.064;2023-02-26T06:53:24;4.37;;;2.47;;
73733;SDS011;62039;50.000;9.064;2023-02-26T06:55:51;3.33;;;2.30;;
73733;SDS011;62039;50.000;9.064;2023-02-26T06:58:18;2.70;;;1.70;;
73733;SDS011;62039;50.000;9.064;2023-02-26T07:00:45;3.27;;;2.00;;
73733;SDS011;62039;50.000;9.064;2023-02-26T07:03:12;3.00;;;1.80;;
73733;SDS011;62039;50.000;9.064;2023-02-26T07:05:40;1.57;;;1.40;;
73733;SDS011;62039;50.000;9.064;2023-02-26T07:08:07;2.33;;;1.60;;
73733;SDS011;62039;50.000;9.064;2023-02-26T07:10:35;2.40;;;2.00;;
73733;SDS011;62039;50.000;9.064;2023-02-26T07:13:02;2.53;;;1.63;;
73733;SDS011;62039;50.000;9.064;2023-02-26T07:15:29;2.20;;;1.40;;
73733;SDS011;62039;50.000;9.064;2023-02-26T07:17:56;2.93;;;1.70;;
73733;SDS011;62039;50.000;9.064;2023-02-26T07:20:23;2.67;;;1.40;;
73733;SDS011;62039;50.000;9.064;2023-02-26T07:22:49;3.77;;;2.07;;
73733;SDS011;62039;50.000;9.064;2023-02-26T07:25:16;2.17;;;1.50;;
73733;SDS011;62039;50.000;9.064;2023-02-26T07:27:44;2.23;;;1.70;;
73733;SDS011;62039;50.000;9.064;2023-02-26T07:30:11;2.83;;;1.50;;
73733;SDS011;62039;50.000;9.064;2023-02-26T07:32:38;4.90;;;2.03;;
73733;SDS011;62039;50.000;9.064;2023-02-26T07:35:05;3.37;;;1.87;;
73733;SDS011;62039;50.000;9.064;2023-02-26T07:37:31;3.40;;;1.93;;
73733;SDS011;62039;50.000;9.064;2023-02-26T07:39:58;2.63;;;2.00;;
73733;SDS011;62039;50.000;9.064;2023-02-26T07:42:25;2.23;;;1.77;;
73733;SDS011;62039;50.000;9.064;2023-02-26T07:44:53;2.07;;;1.73;;
73733;SDS011;62039;50.000;9.064;2023-02-26T07:47:19;2.27;;;1.63;;
73733;SDS011;62039;50.000;9.064;2023-02-26T07:49:46;3.20;;;1.40;;
73733;SDS011;62039;50.000;9.064;2023-02-26T07:52:12;2.33;;;1.80;;
73733;SDS011;62039;50.000;9.064;2023-02-26T07:54:39;2.70;;;1.80;;
73733;SDS011;62039;50.000;9.064;2023-02-26T07:57:05;2.63;;;1.97;;
73733;SDS011;62039;50.000;9.064;2023-02-26T07:59:32;3.57;;;1.97;;
73733;SDS011;62039;50.000;9.064;2023-02-26T08:02:00;2.67;;;1.43;;
73733;SDS011;62039;50.000;9.064;2023-02-26T08:04:26;2.50;;;1.70;;
73733;SDS011;62039;50.000;9.064;2023-02-26T08:06:53;2.37;;;1.60;;
73733;SDS011;62039;50.000;9.064;2023-02-26T08:09:20;2.17;;;1.53;;
73733;SDS011;62039;50.000;9.064;2023-02-26T08:11:46;2.37;;;1.57;;
73733;SDS011;62039;50.000;9.064;2023-02-26T08:14:13;1.50;;;1.40;;
73733;SDS011;62039;50.000;9.064;2023-02-26T08:16:40;2.47;;;1.43;;
73733;SDS011;62039;50.000;9.064;2023-02-26T08:19:08;2.17;;;1.53;;
73733;SDS011;62039;50.000;9.064;2023-02-26T08:21:35;1.60;;;1.40;;
73733;SDS011;62039;50.000;9.064;2023-02-26T08:24:02;1.57;;;1.43;;
73733;SDS011;62039;50.000;9.064;2023-02-26T08:26:28;1.97;;;1.40;;
73733;SDS011;62039;50.000;9.064;2023-02-26T08:28:55;2.23;;;1.30;;
73733;SDS011;62039;50.000;9.064;2023-02-26T08:31:21;2.20;;;1.50;;
73733;SDS011;62039;50.000;9.064;2023-02-26T08:33:48;1.27;;;1.13;;
73733;SDS011;62039;50.000;9.064;2023-02-26T08:36:16;5.33;;;1.77;;
73733;SDS011;62039;50.000;9.064;2023-02-26T08:38:42;2.10;;;1.50;;
73733;SDS011;62039;50.000;9.064;2023-02-26T08:41:09;1.37;;;1.10;;
73733;SDS011;62039;50.000;9.064;2023-02-26T08:43:35;2.27;;;1.40;;
73733;SDS011;62039;50.000;9.064;2023-02-26T08:46:02;2.43;;;1.30;;
73733;SDS011;62039;50.000;9.064;2023-02-26T08:48:29;1.67;;;1.30;;
73733;SDS011;62039;50.000;9.064;2023-02-26T08:50:55;3.00;;;1.33;;
73733;SDS011;62039;50.000;9.064;2023-02-26T08:53:23;3.30;;;1.30;;
73733;SDS011;62039;50.000;9.064;2023-02-26T08:55:50;2.87;;;1.27;;
73733;SDS011;62039;50.000;9.064;2023-02-26T08:58:18;1.67;;;1.20;;
73733;SDS011;62039;50.000;9.064;2023-02-26T09:00:45;1.60;;;1.17;;
73733;SDS011;62039;50.000;9.064;2023-02-26T09:03:11;2.40;;;1.23;;
73733;SDS011;62039;50.000;9.064;2023-02-26T09:05:38;2.97;;;1.47;;
73733;SDS011;62039;50.000;9.064;2023-02-26T09:08:05;2.03;;;1.60;;
73733;SDS011;62039;50.000;9.064;2023-02-26T09:10:33;2.70;;;1.10;;
73733;SDS011;62039;50.000;9.064;2023-02-26T09:13:00;1.67;;;1.30;;
73733;SDS011;62039;50.000;9.064;2023-02-26T09:15:26;1.40;;;1.30;;
73733;SDS011;62039;50.000;9.064;2023-02-26T09:17:53;2.03;;;1.40;;
73733;SDS011;62039;50.000;9.064;2023-02-26T09:20:19;2.90;;;1.30;;
73733;SDS011;62039;50.000;9.064;2023-02-26T09:22:46;2.80;;;1.40;;
73733;SDS011;62039;50.000;9.064;2023-02-26T09:25:13;1.97;;;1.30;;
73733;SDS011;62039;50.000;9.064;2023-02-26T09:27:42;1.40;;;1.03;;
73733;SDS011;62039;50.000;9.064;2023-02-26T09:30:10;3.03;;;1.10;;
73733;SDS011;62039;50.000;9.064;2023-02-26T09:32:37;3.40;;;1.43;;
73733;SDS011;62039;50.000;9.064;2023-02-26T09:35:04;2.20;;;1.57;;
73733;SDS011;62039;50.000;9.064;2023-02-26T09:37:32;2.23;;;1.30;;
73733;SDS011;62039;50.000;9.064;2023-02-26T09:39:58;1.80;;;1.23;;
73733;SDS011;62039;50.000;9.064;2023-02-26T09:42:28;1.60;;;1.10;;
73733;SDS011;62039;50.000;9.064;2023-02-26T09:45:06;2.20;;;1.20;;
73733;SDS011;62039;50.000;9.064;2023-02-26T09:47:39;2.03;;;1.00;;
73733;SDS011;62039;50.000;9.064;2023-02-26T09:50:12;2.93;;;1.50;;
73733;SDS011;62039;50.000;9.064;2023-02-26T09:52:44;3.07;;;1.90;;
73733;SDS011;62039;50.000;9.064;2023-02-26T09:55:16;1.97;;;1.27;;
73733;SDS011;62039;50.000;9.064;2023-02-26T09:57:48;2.30;;;1.30;;
73733;SDS011;62039;50.000;9.064;2023-02-26T10:00:23;3.23;;;1.87;;
73733;SDS011;62039;50.000;9.064;2023-02-26T10:02:59;2.00;;;1.37;;
73733;SDS011;62039;50.000;9.064;2023-02-26T10:05:38;0.97;;;0.90;;
73733;SDS011;62039;50.000;9.064;2023-02-26T10:08:10;1.87;;;1.20;;
73733;SDS011;62039;50.000;9.064;2023-02-26T10:10:42;2.13;;;1.23;;
73733;SDS011;62039;50.000;9.064;2023-02-26T10:13:17;1.27;;;1.00;;
73733;SDS011;62039;50.000;9.064;2023-02-26T10:15:52;0.70;;;0.70;;
73733;SDS011;62039;50.000;9.064;2023-02-26T10:18:27;1.00;;;0.90;;
73733;SDS011;62039;50.000;9.064;2023-02-26T10:20:59;1.07;;;0.90;;
73733;SDS011;62039;50.000;9.064;2023-02-26T10:23:31;1.00;;;0.80;;
73733;SDS011;62039;50.000;9.064;2023-02-26T10:26:04;0.80;;;0.70;;
73733;SDS011;62039;50.000;9.064;2023-02-26T10:28:40;1.20;;;0.90;;
73733;SDS011;62039;50.000;9.064;2023-02-26T10:31:22;2.07;;;1.13;;
73733;SDS011;62039;50.000;9.064;2023-02-26T10:33:57;1.17;;;0.83;;
73733;SDS011;62039;50.000;9.064;2023-02-26T10:36:34;1.43;;;1.00;;
73733;SDS011;62039;50.000;9.064;2023-02-26T10:39:11;1.23;;;1.00;;
73733;SDS011;62039;50.000;9.064;2023-02-26T10:41:44;1.70;;;0.80;;
73733;SDS011;62039;50.000;9.064;2023-02-26T10:44:13;0.90;;;0.73;;
73733;SDS011;62039;50.000;9.064;2023-02-26T10:46:47;1.10;;;0.70;;
73733;SDS011;62039;50.000;9.064;2023-02-26T10:49:24;1.00;;;0.80;;
73733;SDS011;62039;50.000;9.064;2023-02-26T10:52:16;1.53;;;0.93;;
73733;SDS011;62039;50.000;9.064;2023-02-26T10:54:56;0.80;;;0.63;;
73733;SDS011;62039;50.000;9.064;2023-02-26T10:57:30;0.90;;;0.77;;
73733;SDS011;62039;50.000;9.064;2023-02-26T10:59:59;2.43;;;1.33;;
73733;SDS011;62039;50.000;9.064;2023-02-26T11:02:32;1.90;;;1.10;;
73733;SDS011;62039;50.000;9.064;2023-02-26T11:05:02;2.60;;;1.10;;
73733;SDS011;62039;50.000;9.064;2023-02-26T11:07:34;1.53;;;1.03;;
73733;SDS011;62039;50.000;9.064;2023-02-26T11:10:03;2.40;;;1.07;;
73733;SDS011;62039;50.000;9.064;2023-02-26T11:12:32;1.53;;;1.20;;
73733;SDS011;62039;50.000;9.064;2023-02-26T11:14:59;2.23;;;1.80;;
73733;SDS011;62039;50.000;9.064;2023-02-26T11:17:28;2.03;;;1.30;;
73733;SDS011;62039;50.000;9.064;2023-02-26T11:19:57;3.57;;;1.73;;
73733;SDS011;62039;50.000;9.064;2023-02-26T11:22:27;4.07;;;2.00;;
73733;SDS011;62039;50.000;9.064;2023-02-26T11:24:57;5.53;;;2.67;;
73733;SDS011;62039;50.000;9.064;2023-02-26T11:27:30;4.37;;;2.60;;
73733;SDS011;62039;50.000;9.064;2023-02-26T11:30:02;2.93;;;1.80;;
73733;SDS011;62039;50.000;9.064;2023-02-26T11:32:33;2.27;;;1.60;;
73733;SDS011;62039;50.000;9.064;2023-02-26T11:35:05;2.50;;;1.37;;
73733;SDS011;62039;50.000;9.064;2023-02-26T11:37:34;1.57;;;1.10;;
73733;SDS011;62039;50.000;9.064;2023-02-26T11:40:03;2.30;;;1.20;;
73733;SDS011;62039;50.000;9.064;2023-02-26T11:42:33;1.77;;;1.30;;
73733;SDS011;62039;50.000;9.064;2023-02-26T11:45:03;2.73;;;1.60;;
73733;SDS011;62039;50.000;9.064;2023-02-26T11:47:31;2.07;;;1.10;;
73733;SDS011;62039;50.000;9.064;2023-02-26T11:49:59;1.13;;;1.03;;
73733;SDS011;62039;50.000;9.064;2023-02-26T11:52:31;1.33;;;1.20;;
73733;SDS011;62039;50.000;9.064;2023-02-26T11:54:59;1.17;;;0.97;;
73733;SDS011;62039;50.000;9.064;2023-02-26T11:57:28;1.67;;;0.87;;
73733;SDS011;62039;50.000;9.064;2023-02-26T11:59:57;1.93;;;1.17;;
73733;SDS011;62039;50.000;9.064;2023-02-26T12:02:26;1.73;;;1.20;;
73733;SDS011;62039;50.000;9.064;2023-02-26T12:04:58;2.57;;;1.10;;
73733;SDS011;62039;50.000;9.064;2023-02-26T12:07:26;1.80;;;0.90;;
73733;SDS011;62039;50.000;9.064;2023-02-26T12:09:54;1.23;;;0.80;;
73733;SDS011;62039;50.000;9.064;2023-02-26T12:12:24;0.70;;;0.70;;
73733;SDS011;62039;50.000;9.064;2023-02-26T12:15:01;0.63;;;0.60;;
73733;SDS011;62039;50.000;9.064;2023-02-26T12:17:42;1.53;;;0.70;;
73733;SDS011;62039;50.000;9.064;2023-02-26T12:20:19;0.70;;;0.70;;
73733;SDS011;62039;50.000;9.064;2023-02-26T12:22:50;0.93;;;0.90;;
73733;SDS011;62039;50.000;9.064;2023-02-26T12:25:41;1.30;;;1.03;;
73733;SDS011;62039;50.000;9.064;2023-02-26T12:28:28;2.20;;;1.33;;
73733;SDS011;62039;50.000;9.064;2023-02-26T12:31:07;1.63;;;1.40;;
73733;SDS011;62039;50.000;9.064;2023-02-26T12:33:49;0.97;;;0.87;;
73733;SDS011;62039;50.000;9.064;2023-02-26T12:36:25;1.57;;;1.10;;
73733;SDS011;62039;50.000;9.064;2023-02-26T12:39:24;1.47;;;1.00;;
73733;SDS011;62039;50.000;9.064;2023-02-26T12:42:02;1.07;;;0.70;;
73733;SDS011;62039;50.000;9.064;2023-02-26T12:44:46;2.97;;;1.70;;
73733;SDS011;62039;50.000;9.064;2023-02-26T12:47:34;3.77;;;2.17;;
73733;SDS011;62039;50.000;9.064;2023-02-26T12:50:15;2.87;;;1.70;;
73733;SDS011;62039;50.000;9.064;2023-02-26T12:52:53;2.73;;;2.10;;
73733;SDS011;62039;50.000;9.064;2023-02-26T12:55:32;3.33;;;2.10;;
73733;SDS011;62039;50.000;9.064;2023-02-26T12:58:19;1.57;;;1.17;;
73733;SDS011;62039;50.000;9.064;2023-02-26T13:01:03;2.57;;;1.47;;
73733;SDS011;62039;50.000;9.064;2023-02-26T13:03:42;3.70;;;2.00;;
73733;SDS011;62039;50.000;9.064;2023-02-26T13:06:28;1.97;;;1.20;;
73733;SDS011;62039;50.000;9.064;2023-02-26T13:09:19;2.30;;;1.47;;
73733;SDS011;62039;50.000;9.064;2023-02-26T13:11:56;1.20;;;1.00;;
73733;SDS011;62039;50.000;9.064;2023-02-26T13:14:34;1.40;;;1.10;;
73733;SDS011;62039;50.000;9.064;2023-02-26T13:17:12;1.90;;;1.00;;
73733;SDS011;62039;50.000;9.064;2023-02-26T13:19:48;1.20;;;1.10;;
73733;SDS011;62039;50.000;9.064;2023-02-26T13:22:19;1.60;;;1.00;;
73733;SDS011;62039;50.000;9.064;2023-02-26T13:24:50;1.60;;;1.00;;
73733;SDS011;62039;50.000;9.064;2023-02-26T13:27:21;1.20;;;0.90;;
73733;SDS011;62039;50.000;9.064;2023-02-26T13:29:58;2.80;;;1.10;;
73733;SDS011;62039;50.000;9.064;2023-02-26T13:32:34;0.80;;;0.80;;
73733;SDS011;62039;50.000;9.064;2023-02-26T13:35:04;1.80;;;1.07;;
73733;SDS011;62039;50.000;9.064;2023-02-26T13:37:36;1.07;;;0.93;;
73733;SDS011;62039;50.000;9.064;2023-02-26T13:40:23;1.93;;;1.13;;
73733;SDS011;62039;50.000;9.064;2023-02-26T13:43:15;1.77;;;1.30;;
73733;SDS011;62039;50.000;9.064;2023-02-26T13:46:04;1.23;;;1.00;;
73733;SDS011;62039;50.000;9.064;2023-02-26T13:48:43;1.97;;;1.43;;
73733;SDS011;62039;50.000;9.064;2023-02-26T13:51:14;1.23;;;1.10;;
73733;SDS011;62039;50.000;9.064;2023-02-26T13:53:54;2.37;;;1.67;;
73733;SDS011;62039;50.000;9.064;2023-02-26T13:59:35;1.57;;;1.20;;
73733;SDS011;62039;50.000;9.064;2023-02-26T14:05:00;1.27;;;0.80;;
73733;SDS011;62039;50.000;9.064;2023-02-26T14:07:45;1.10;;;0.80;;
73733;SDS011;62039;50.000;9.064;2023-02-26T14:10:14;1.03;;;0.90;;
73733;SDS011;62039;50.000;9.064;2023-02-26T14:12:42;1.27;;;0.90;;
73733;SDS011;62039;50.000;9.064;2023-02-26T14:15:25;1.07;;;0.97;;
73733;SDS011;62039;50.000;9.064;2023-02-26T14:18:00;2.17;;;1.07;;
73733;SDS011;62039;50.000;9.064;2023-02-26T14:20:31;0.80;;;0.80;;
73733;SDS011;62039;50.000;9.064;2023-02-26T14:23:12;1.33;;;1.00;;
73733;SDS011;62039;50.000;9.064;2023-02-26T14:25:50;1.63;;;0.90;;
73733;SDS011;62039;50.000;9.064;2023-02-26T14:28:19;1.23;;;1.00;;
73733;SDS011;62039;50.000;9.064;2023-02-26T14:31:05;1.00;;;0.80;;
73733;SDS011;62039;50.000;9.064;2023-02-26T14:33:38;0.80;;;0.80;;
73733;SDS011;62039;50.000;9.064;2023-02-26T14:36:09;1.17;;;0.70;;
73733;SDS011;62039;50.000;9.064;2023-02-26T14:38:53;1.00;;;0.73;;
73733;SDS011;62039;50.000;9.064;2023-02-26T14:41:25;1.77;;;0.87;;
73733;SDS011;62039;50.000;9.064;2023-02-26T14:43:57;1.30;;;1.00;;
73733;SDS011;62039;50.000;9.064;2023-02-26T14:46:26;1.53;;;1.00;;
73733;SDS011;62039;50.000;9.064;2023-02-26T14:48:55;0.97;;;0.80;;
73733;SDS011;62039;50.000;9.064;2023-02-26T14:51:25;0.93;;;0.87;;
73733;SDS011;62039;50.000;9.064;2023-02-26T14:54:02;0.70;;;0.60;;
73733;SDS011;62039;50.000;9.064;2023-02-26T14:56:42;1.43;;;0.70;;
73733;SDS011;62039;50.000;9.064;2023-02-26T14:59:22;1.13;;;0.70;;
73733;SDS011;62039;50.000;9.064;2023-02-26T15:02:01;1.37;;;0.80;;
73733;SDS011;62039;50.000;9.064;2023-02-26T15:04:47;0.80;;;0.70;;
73733;SDS011;62039;50.000;9.064;2023-02-26T15:07:39;1.10;;;0.90;;
73733;SDS011;62039;50.000;9.064;2023-02-26T15:10:18;0.70;;;0.70;;
73733;SDS011;62039;50.000;9.064;2023-02-26T15:12:59;1.33;;;1.00;;
73733;SDS011;62039;50.000;9.064;2023-02-26T15:15:37;1.20;;;0.90;;
73733;SDS011;62039;50.000;9.064;2023-02-26T15:21:15;1.53;;;1.03;;